Time;durP1;ratioP1;P1;durP2;ratioP2;P2;SDS_P1;SDS_P2;PMS_P1;PMS_P2;Temp;Humidity;BMP_temperature;BMP_pressure;BME280_temperature;BME280_humidity;BME280_pressure;Samples;Min_cycle;Max_cycle;Signal;HPM_P1;HPM_P2
2023/08/18 00:00:00;;;;;;;11.18;9.23;;;;;;;20.33;100.00;99949.25;4972869;28;20047;-91
2023/08/18 00:02:26;;;;;;;9.90;9.00;;;;;;;20.36;100.00;99946.38;4973351;28;20399;-90
2023/08/18 00:04:51;;;;;;;11.38;9.25;;;;;;;20.35;100.00;99942.88;4972837;28;20030;-90
2023/08/18 00:07:17;;;;;;;10.18;9.13;;;;;;;20.35;100.00;99931.44;4956856;28;20500;-90
2023/08/18 00:09:45;;;;;;;11.10;9.90;;;;;;;20.33;100.00;99928.94;4972627;28;20518;-91
2023/08/18 00:12:11;;;;;;;11.05;10.00;;;;;;;20.29;100.00;99921.38;4956723;28;20035;-90
2023/08/18 00:14:36;;;;;;;12.00;9.40;;;;;;;20.29;100.00;99911.63;4956771;28;20041;-91
2023/08/18 00:17:02;;;;;;;10.55;9.23;;;;;;;20.34;100.00;99905.97;4972502;28;20031;-91
2023/08/18 00:19:27;;;;;;;9.93;9.02;;;;;;;20.38;100.00;99902.94;4972706;28;20135;-91
2023/08/18 00:21:52;;;;;;;9.73;8.73;;;;;;;20.45;100.00;99900.63;4977979;28;20027;-91
2023/08/18 00:24:18;;;;;;;10.38;8.75;;;;;;;20.49;100.00;99896.78;5049285;28;20078;-91
2023/08/18 00:26:45;;;;;;;9.50;8.60;;;;;;;20.52;100.00;99885.94;5049000;28;20473;-90
2023/08/18 00:29:11;;;;;;;9.80;8.90;;;;;;;20.54;100.00;99877.88;5049131;28;20091;-91
2023/08/18 00:31:36;;;;;;;8.98;8.07;;;;;;;20.61;100.00;99885.16;5049514;28;20120;-91
2023/08/18 00:34:02;;;;;;;9.15;8.25;;;;;;;20.61;100.00;99882.53;5015669;28;20041;-90
2023/08/18 00:36:27;;;;;;;9.48;8.48;;;;;;;20.65;100.00;99870.72;5049102;28;20057;-91
2023/08/18 00:38:53;;;;;;;9.95;9.05;;;;;;;20.71;100.00;99884.38;5048811;28;20026;-91
2023/08/18 00:41:18;;;;;;;9.40;8.50;;;;;;;20.68;100.00;99881.00;5048940;28;20479;-90
2023/08/18 00:43:44;;;;;;;9.75;8.85;;;;;;;20.70;100.00;99877.41;5048570;28;20025;-91
2023/08/18 00:46:09;;;;;;;8.73;7.88;;;;;;;20.73;100.00;99874.50;5015750;28;20419;-92
2023/08/18 00:48:38;;;;;;;8.93;8.13;;;;;;;20.72;100.00;99870.16;5015815;28;20526;-91
2023/08/18 00:51:05;;;;;;;9.23;8.38;;;;;;;20.71;100.00;99881.75;5048437;28;20025;-91
2023/08/18 00:53:31;;;;;;;9.27;8.45;;;;;;;20.66;100.00;99868.91;5015561;28;20484;-91
2023/08/18 00:55:56;;;;;;;9.18;8.27;;;;;;;20.61;100.00;99860.50;5015488;28;20053;-91
2023/08/18 00:58:23;;;;;;;9.35;8.45;;;;;;;20.65;100.00;99868.06;5015411;28;20109;-91
2023/08/18 01:00:49;;;;;;;10.38;8.55;;;;;;;20.63;100.00;99866.50;5048576;28;20391;-90
2023/08/18 01:03:15;;;;;;;8.32;7.45;;;;;;;20.59;100.00;99865.91;5010958;28;20076;-90
2023/08/18 01:05:41;;;;;;;13.43;9.40;;;;;;;20.53;100.00;99862.97;5011135;28;20440;-90
2023/08/18 01:08:06;;;;;;;9.80;8.82;;;;;;;20.47;100.00;99866.91;4994374;28;20037;-90
2023/08/18 01:10:43;;;;;;;9.73;8.63;;;;;;;20.39;100.00;99858.78;4994519;28;20543;-90
2023/08/18 01:13:26;;;;;;;10.13;8.00;;;;;;;20.29;100.00;99836.75;4994228;28;20046;-91
2023/08/18 01:15:56;;;;;;;12.32;8.60;;;;;;;20.37;100.00;99850.16;4994076;28;20124;-90
2023/08/18 01:18:22;;;;;;;13.50;9.05;;;;;;;20.35;100.00;99845.00;5011026;28;20042;-91
2023/08/18 01:20:50;;;;;;;8.63;7.72;;;;;;;20.39;100.00;99838.50;4994067;28;20487;-90
2023/08/18 01:23:17;;;;;;;8.95;8.07;;;;;;;20.37;100.00;99840.41;4994201;28;20038;-90
2023/08/18 01:25:42;;;;;;;8.88;8.00;;;;;;;20.36;100.00;99830.81;4994222;28;20038;-91
2023/08/18 01:28:08;;;;;;;9.27;8.38;;;;;;;20.41;100.00;99835.72;4993819;28;20052;-90
2023/08/18 01:30:46;;;;;;;8.95;8.20;;;;;;;20.33;100.00;99824.94;5026991;28;20084;-91
2023/08/18 01:33:42;;;;;;;8.25;7.40;;;;;;;20.33;100.00;99835.50;4995163;28;20113;-90
2023/08/18 01:36:12;;;;;;;8.35;7.57;;;;;;;20.28;100.00;99833.25;5014809;28;20041;-90
2023/08/18 01:38:38;;;;;;;8.18;7.43;;;;;;;20.19;100.00;99829.59;5047985;28;20425;-91
2023/08/18 01:41:06;;;;;;;9.15;8.35;;;;;;;20.18;100.00;99827.91;5047495;28;20044;-91
2023/08/18 01:43:33;;;;;;;8.88;7.97;;;;;;;20.09;100.00;99817.25;5047756;28;20116;-90
2023/08/18 01:46:01;;;;;;;9.05;8.25;;;;;;;20.18;100.00;99833.19;5047498;28;20026;-90
2023/08/18 01:48:26;;;;;;;9.35;8.55;;;;;;;20.18;100.00;99838.50;5014579;28;20033;-91
2023/08/18 01:50:51;;;;;;;9.02;7.97;;;;;;;20.11;100.00;99831.19;5047543;28;20037;-91
2023/08/18 01:53:17;;;;;;;8.27;7.47;;;;;;;20.11;100.00;99837.31;5047628;28;20036;-90
2023/08/18 01:55:43;;;;;;;8.38;7.53;;;;;;;20.06;100.00;99830.75;5014479;28;20041;-90
2023/08/18 01:58:08;;;;;;;9.40;8.50;;;;;;;20.11;100.00;99828.53;5014370;28;20021;-90
2023/08/18 02:00:34;;;;;;;8.52;7.70;;;;;;;20.07;100.00;99829.75;5047444;28;20112;-91
2023/08/18 02:02:59;;;;;;;9.38;8.40;;;;;;;20.05;100.00;99826.41;5014178;28;20022;-90
2023/08/18 02:05:25;;;;;;;8.77;7.97;;;;;;;20.02;100.00;99831.97;5014403;28;20488;-91
2023/08/18 02:07:50;;;;;;;9.38;8.48;;;;;;;20.00;100.00;99833.88;5014299;28;20357;-91
2023/08/18 02:10:16;;;;;;;9.13;8.18;;;;;;;19.94;100.00;99837.88;5014415;28;20488;-90
2023/08/18 02:12:42;;;;;;;10.23;8.50;;;;;;;19.91;100.00;99846.06;5047321;28;20388;-91
2023/08/18 02:15:08;;;;;;;10.43;8.82;;;;;;;19.81;100.00;99824.84;5046942;28;20519;-90
2023/08/18 02:17:34;;;;;;;9.50;8.60;;;;;;;19.79;100.00;99820.63;5014105;28;20033;-90
2023/08/18 02:19:59;;;;;;;9.27;8.38;;;;;;;19.82;100.00;99821.22;5014118;28;20044;-91
2023/08/18 02:22:28;;;;;;;9.25;8.35;;;;;;;19.81;100.00;99821.34;5047282;28;20026;-91
2023/08/18 02:24:53;;;;;;;8.80;8.00;;;;;;;19.73;100.00;99813.22;5047041;28;20029;-91
2023/08/18 02:27:19;;;;;;;10.10;8.50;;;;;;;19.73;100.00;99821.97;5047321;28;20040;-91
2023/08/18 02:29:45;;;;;;;9.27;8.38;;;;;;;19.71;100.00;99813.31;5047365;28;20464;-91
2023/08/18 02:32:10;;;;;;;9.55;8.60;;;;;;;19.72;100.00;99817.66;5046742;28;20112;-90
2023/08/18 02:34:35;;;;;;;9.38;8.48;;;;;;;19.69;100.00;99812.63;5014032;28;20029;-91
2023/08/18 02:37:01;;;;;;;9.60;8.70;;;;;;;19.63;100.00;99806.00;5046914;28;20407;-90
2023/08/18 02:39:26;;;;;;;9.82;8.93;;;;;;;19.63;100.00;99808.66;5047131;28;20489;-90
2023/08/18 02:41:52;;;;;;;8.88;8.02;;;;;;;19.62;100.00;99820.19;5046816;28;20029;-91
2023/08/18 02:44:18;;;;;;;9.98;8.98;;;;;;;19.61;100.00;99818.53;5014045;28;20076;-91
2023/08/18 02:46:43;;;;;;;13.25;10.20;;;;;;;19.63;100.00;99821.03;5049619;28;20025;-91
2023/08/18 02:49:09;;;;;;;11.90;9.65;;;;;;;19.61;100.00;99812.41;5017926;28;20026;-90
2023/08/18 02:51:34;;;;;;;11.95;8.77;;;;;;;19.59;100.00;99815.16;5051004;28;20489;-91
2023/08/18 02:54:00;;;;;;;10.20;9.20;;;;;;;19.54;100.00;99813.84;5050831;28;20451;-91
2023/08/18 02:56:26;;;;;;;9.60;8.70;;;;;;;19.57;100.00;99814.41;5050681;28;20053;-91
2023/08/18 02:58:51;;;;;;;11.60;8.30;;;;;;;19.51;100.00;99803.50;5017572;28;20061;-91
2023/08/18 03:01:17;;;;;;;11.07;9.10;;;;;;;19.53;100.00;99815.63;5017694;28;20057;-91
2023/08/18 03:03:42;;;;;;;9.48;8.40;;;;;;;19.52;100.00;99816.59;5017826;28;20025;-91
2023/08/18 03:06:08;;;;;;;9.95;8.65;;;;;;;19.44;100.00;99816.38;5050655;28;20055;-90
2023/08/18 03:08:39;;;;;;;10.35;9.20;;;;;;;19.47;100.00;99820.56;5050745;28;20025;-90
2023/08/18 03:11:05;;;;;;;10.50;9.50;;;;;;;19.40;100.00;99818.44;5017318;28;20038;-91
2023/08/18 03:13:31;;;;;;;10.15;9.15;;;;;;;19.33;100.00;99813.75;5017547;28;20029;-90
2023/08/18 03:15:57;;;;;;;10.38;9.38;;;;;;;19.41;100.00;99830.66;5050228;28;20029;-91
2023/08/18 03:18:22;;;;;;;10.00;9.18;;;;;;;19.38;100.00;99828.28;5017370;28;20033;-91
2023/08/18 03:20:49;;;;;;;10.88;8.65;;;;;;;19.36;100.00;99832.00;5017526;28;20084;-90
2023/08/18 03:23:16;;;;;;;9.45;8.65;;;;;;;19.33;100.00;99838.38;5017175;28;20057;-90
2023/08/18 03:25:42;;;;;;;10.52;9.48;;;;;;;19.29;100.00;99828.16;5050466;28;20086;-91
2023/08/18 03:28:08;;;;;;;10.52;9.50;;;;;;;19.28;100.00;99827.34;5017046;28;20468;-90
2023/08/18 03:30:37;;;;;;;11.35;10.15;;;;;;;19.33;100.00;99840.16;5050262;28;20040;-90
2023/08/18 03:33:03;;;;;;;10.15;9.15;;;;;;;19.16;100.00;99801.91;5017077;28;20487;-91
2023/08/18 03:35:31;;;;;;;9.60;8.77;;;;;;;19.27;100.00;99823.03;4992834;28;20050;-90
2023/08/18 03:38:00;;;;;;;10.45;8.82;;;;;;;19.26;100.00;99821.34;4993137;28;20476;-90
2023/08/18 03:40:26;;;;;;;9.88;8.93;;;;;;;19.23;100.00;99813.66;4993088;28;20051;-91
2023/08/18 03:42:52;;;;;;;10.45;9.35;;;;;;;19.27;100.00;99825.66;4976727;28;20027;-90
2023/08/18 03:45:17;;;;;;;9.77;8.88;;;;;;;19.21;100.00;99812.94;4992655;28;20048;-91
2023/08/18 03:47:43;;;;;;;13.65;8.98;;;;;;;19.20;100.00;99835.03;4992817;28;20110;-90
2023/08/18 03:50:09;;;;;;;12.00;9.13;;;;;;;19.11;100.00;99826.03;4976181;28;20038;-91
2023/08/18 03:52:34;;;;;;;10.25;9.25;;;;;;;19.12;100.00;99829.50;4976397;28;20516;-90
2023/08/18 03:55:00;;;;;;;9.85;8.95;;;;;;;19.01;100.00;99821.63;4976000;28;20065;-90
2023/08/18 03:57:25;;;;;;;10.07;9.07;;;;;;;19.11;100.00;99833.13;4992004;28;20034;-90
2023/08/18 03:59:53;;;;;;;10.40;9.40;;;;;;;19.12;100.00;99826.88;4992501;28;20125;-91
2023/08/18 04:02:18;;;;;;;10.27;9.35;;;;;;;19.18;100.00;99831.69;4992268;28;20037;-91
2023/08/18 04:04:44;;;;;;;9.70;8.75;;;;;;;19.18;100.00;99826.41;4992444;28;20034;-91
2023/08/18 04:07:09;;;;;;;9.18;8.25;;;;;;;19.25;100.00;99826.72;5011734;28;20124;-91
2023/08/18 04:09:34;;;;;;;8.95;8.05;;;;;;;19.21;100.00;99815.56;5016531;28;20029;-90
2023/08/18 04:12:00;;;;;;;9.15;8.32;;;;;;;19.25;100.00;99817.00;5049162;28;20112;-91
2023/08/18 04:14:25;;;;;;;9.70;8.70;;;;;;;19.29;100.00;99814.97;5016668;28;20032;-91
2023/08/18 04:16:51;;;;;;;7.60;6.82;;;;;;;19.32;100.00;99815.56;5016488;28;20219;-91
2023/08/18 04:19:16;;;;;;;9.20;8.25;;;;;;;19.36;100.00;99811.72;5049188;28;20493;-91
2023/08/18 04:21:42;;;;;;;9.50;8.57;;;;;;;19.34;100.00;99807.50;5016383;28;20028;-91
2023/08/18 04:24:07;;;;;;;9.50;8.57;;;;;;;19.42;100.00;99816.53;5016230;28;20100;-91
2023/08/18 04:26:36;;;;;;;9.70;8.80;;;;;;;19.42;100.00;99810.38;5049054;28;20017;-91
2023/08/18 04:29:02;;;;;;;12.60;10.18;;;;;;;19.52;100.00;99819.25;5049104;28;20491;-91
2023/08/18 04:31:28;;;;;;;11.40;10.05;;;;;;;19.56;100.00;99814.56;5016024;28;20052;-90
2023/08/18 04:33:54;;;;;;;9.60;8.75;;;;;;;19.62;100.00;99816.72;5016037;28;20033;-91
2023/08/18 04:36:19;;;;;;;10.63;9.55;;;;;;;19.75;100.00;99813.91;5015629;28;20056;-91
2023/08/18 04:38:45;;;;;;;10.48;8.98;;;;;;;19.86;100.00;99817.34;5015943;28;20029;-91
2023/08/18 04:41:10;;;;;;;10.75;9.18;;;;;;;19.99;100.00;99817.19;5048582;28;20033;-91
2023/08/18 04:43:35;;;;;;;9.73;8.82;;;;;;;20.11;100.00;99810.88;5049118;28;20033;-91
2023/08/18 04:46:01;;;;;;;10.23;9.23;;;;;;;20.23;100.00;99806.38;5015766;28;20026;-91
2023/08/18 04:48:26;;;;;;;9.55;8.70;;;;;;;20.39;100.00;99816.47;5015906;28;20036;-91
2023/08/18 04:50:52;;;;;;;9.20;8.40;;;;;;;20.62;100.00;99817.19;5015781;28;20025;-91
2023/08/18 04:53:17;;;;;;;8.93;7.85;;;;;;;21.01;100.00;99820.00;5048431;28;20395;-90
2023/08/18 04:55:43;;;;;;;9.80;8.80;;;;;;;21.83;100.00;99817.13;5048712;28;20049;-91
2023/08/18 04:58:12;;;;;;;8.48;7.60;;;;;;;23.08;100.00;99825.81;5048645;28;20028;-92
2023/08/18 05:00:47;;;;;;;7.60;7.00;;;;;;;24.12;100.00;99829.75;5015867;28;20400;-91
2023/08/18 05:03:12;;;;;;;8.57;7.80;;;;;;;24.54;99.59;99836.25;5048513;28;20041;-91
2023/08/18 05:05:40;;;;;;;9.32;7.72;;;;;;;24.14;100.00;99834.91;5048519;28;20030;-91
2023/08/18 05:08:05;;;;;;;8.35;7.03;;;;;;;23.76;100.00;99841.38;5047359;28;20478;-91
2023/08/18 05:10:31;;;;;;;7.45;6.75;;;;;;;23.58;100.00;99849.31;5015225;28;20129;-91
2023/08/18 05:12:56;;;;;;;7.65;6.95;;;;;;;23.16;100.00;99844.53;5015476;28;20032;-90
2023/08/18 05:15:22;;;;;;;7.80;7.00;;;;;;;23.17;100.00;99854.16;5048227;28;20037;-91
2023/08/18 05:17:50;;;;;;;7.72;6.93;;;;;;;23.12;100.00;99862.56;5048418;28;20083;-91
2023/08/18 05:20:16;;;;;;;7.15;6.45;;;;;;;22.89;100.00;99869.22;5047975;28;20024;-91
2023/08/18 05:22:42;;;;;;;6.80;6.10;;;;;;;22.69;100.00;99864.94;5015138;28;20033;-91
2023/08/18 05:25:08;;;;;;;7.80;7.00;;;;;;;22.41;100.00;99848.94;5047824;28;20060;-91
2023/08/18 05:27:34;;;;;;;7.80;7.05;;;;;;;22.36;100.00;99859.97;5048022;28;20036;-91
2023/08/18 05:30:00;;;;;;;7.93;7.15;;;;;;;22.26;100.00;99876.91;5015125;28;20033;-91
2023/08/18 05:32:25;;;;;;;7.60;6.90;;;;;;;22.25;100.00;99881.38;5014765;28;20522;-91
2023/08/18 05:34:55;;;;;;;6.75;6.15;;;;;;;22.32;100.00;99868.34;5014927;28;20083;-90
2023/08/18 05:37:21;;;;;;;8.75;6.85;;;;;;;22.27;100.00;99876.75;5014747;28;20057;-91
2023/08/18 05:39:46;;;;;;;6.82;6.22;;;;;;;22.17;100.00;99886.53;5048079;28;20056;-91
2023/08/18 05:42:11;;;;;;;8.07;6.93;;;;;;;22.23;100.00;99872.69;5047717;28;20535;-91
2023/08/18 05:44:37;;;;;;;7.88;6.72;;;;;;;22.23;100.00;99872.69;5014910;28;20029;-90
2023/08/18 05:47:03;;;;;;;8.10;7.30;;;;;;;22.03;100.00;99881.59;5014549;28;20116;-90
2023/08/18 05:49:29;;;;;;;9.18;7.30;;;;;;;22.08;100.00;99885.53;5047756;28;20523;-91
2023/08/18 05:51:54;;;;;;;7.63;6.90;;;;;;;22.28;100.00;99894.34;5014486;28;20056;-90
2023/08/18 05:54:19;;;;;;;7.80;6.68;;;;;;;22.51;100.00;99894.88;5014117;28;20025;-90
2023/08/18 05:56:45;;;;;;;8.07;7.13;;;;;;;22.71;100.00;99889.53;5032585;28;20028;-91
2023/08/18 05:59:11;;;;;;;7.53;6.47;;;;;;;23.07;100.00;99896.72;5014510;28;20025;-90
2023/08/18 06:01:36;;;;;;;7.93;7.13;;;;;;;23.28;100.00;99900.97;5014519;28;20464;-90
2023/08/18 06:04:02;;;;;;;8.13;7.43;;;;;;;23.33;100.00;99893.41;5014648;28;20037;-90
2023/08/18 06:06:27;;;;;;;7.50;6.80;;;;;;;23.32;100.00;99873.13;5040178;28;20018;-90
2023/08/18 06:08:53;;;;;;;8.05;7.25;;;;;;;23.71;100.00;99891.53;5014043;28;20041;-90
2023/08/18 06:11:18;;;;;;;7.80;7.10;;;;;;;24.00;100.00;99891.34;5013467;28;20483;-91
2023/08/18 06:13:43;;;;;;;7.85;7.15;;;;;;;24.29;97.09;99893.75;5014368;28;20034;-90
2023/08/18 06:16:09;;;;;;;7.57;6.88;;;;;;;24.35;97.32;99888.63;5014033;28;20183;-89
2023/08/18 06:18:34;;;;;;;7.93;6.65;;;;;;;24.45;95.93;99891.25;5014001;28;20058;-90
2023/08/18 06:21:00;;;;;;;8.70;7.32;;;;;;;24.47;96.34;99891.09;5013767;28;20393;-89
2023/08/18 06:23:25;;;;;;;7.47;6.70;;;;;;;24.51;96.46;99885.31;5012647;28;20102;-90
2023/08/18 06:25:50;;;;;;;7.43;6.57;;;;;;;24.58;95.62;99893.53;5014502;28;20388;-89
2023/08/18 06:28:16;;;;;;;8.10;7.03;;;;;;;24.50;94.06;99886.31;5013846;28;20026;-90
2023/08/18 06:30:41;;;;;;;7.68;6.88;;;;;;;24.57;95.13;99887.38;5014018;28;20033;-90
2023/08/18 06:33:06;;;;;;;7.82;7.10;;;;;;;24.69;95.68;99882.59;5013741;28;20492;-90
2023/08/18 06:35:33;;;;;;;7.15;6.53;;;;;;;24.76;94.61;99880.97;5048891;28;20041;-90
2023/08/18 06:37:58;;;;;;;7.32;6.63;;;;;;;25.18;94.04;99888.22;5032354;28;20454;-90
2023/08/18 06:40:23;;;;;;;11.23;6.93;;;;;;;25.43;91.07;99886.50;5032133;28;20099;-89
2023/08/18 06:42:49;;;;;;;7.85;7.22;;;;;;;25.51;91.73;99878.53;5032799;28;20040;-89
2023/08/18 06:45:14;;;;;;;8.20;6.35;;;;;;;25.78;91.54;99890.78;5032194;28;20047;-90
2023/08/18 06:47:40;;;;;;;8.10;7.32;;;;;;;26.05;91.09;99883.50;5032556;28;20033;-89
2023/08/18 06:50:06;;;;;;;8.68;7.00;;;;;;;26.35;89.21;99892.69;5032522;28;20039;-90
2023/08/18 06:52:32;;;;;;;7.70;7.00;;;;;;;26.70;89.16;99896.03;5032216;28;20484;-89
2023/08/18 06:54:58;;;;;;;9.23;7.68;;;;;;;26.87;86.73;99882.47;5032300;28;20071;-90
2023/08/18 06:57:23;;;;;;;7.53;6.93;;;;;;;27.09;85.31;99888.06;5030763;28;20112;-90
2023/08/18 06:59:49;;;;;;;7.35;6.65;;;;;;;27.11;85.89;99884.25;4978742;28;20573;-90
2023/08/18 07:02:14;;;;;;;6.90;6.30;;;;;;;27.20;84.05;99892.25;4971920;28;20375;-90
2023/08/18 07:04:39;;;;;;;7.93;6.85;;;;;;;27.42;83.21;99887.97;4973343;28;20181;-90
2023/08/18 07:07:05;;;;;;;7.32;6.60;;;;;;;27.50;82.46;99902.16;4972855;28;20129;-90
2023/08/18 07:09:30;;;;;;;7.78;6.82;;;;;;;27.47;82.83;99897.13;4971706;28;20607;-90
2023/08/18 07:11:55;;;;;;;7.28;6.68;;;;;;;27.85;81.40;99889.28;4988264;28;20026;-90
2023/08/18 07:14:21;;;;;;;7.35;6.75;;;;;;;28.36;79.79;99908.38;4987954;28;20409;-90
2023/08/18 07:16:46;;;;;;;7.85;7.25;;;;;;;28.72;79.81;99900.47;4988174;28;20413;-90
2023/08/18 07:19:11;;;;;;;8.70;7.72;;;;;;;29.28;77.23;99890.16;4987857;28;20144;-90
2023/08/18 07:21:37;;;;;;;9.77;8.50;;;;;;;30.19;75.55;99881.72;4971855;28;20030;-89
2023/08/18 07:24:03;;;;;;;10.00;7.95;;;;;;;30.96;73.37;99891.63;4988018;28;20031;-90
2023/08/18 07:26:28;;;;;;;8.15;7.35;;;;;;;31.57;71.31;99880.13;4987775;28;20046;-90
2023/08/18 07:28:54;;;;;;;7.65;6.90;;;;;;;32.01;71.02;99879.63;4989079;28;20129;-90
2023/08/18 07:31:19;;;;;;;7.88;7.07;;;;;;;32.45;68.69;99881.78;4988134;28;20049;-90
2023/08/18 07:33:44;;;;;;;7.47;6.88;;;;;;;32.99;67.81;99875.25;5010219;28;20053;-90
2023/08/18 07:36:10;;;;;;;9.00;6.43;;;;;;;33.50;67.32;99885.28;4992637;28;20417;-90
2023/08/18 07:38:35;;;;;;;6.90;6.30;;;;;;;34.03;65.06;99886.88;4976749;28;20043;-90
2023/08/18 07:41:01;;;;;;;7.85;6.22;;;;;;;34.40;63.43;99868.91;4976717;28;20105;-90
2023/08/18 07:43:26;;;;;;;7.15;5.93;;;;;;;35.04;63.05;99879.56;4976457;28;20065;-90
2023/08/18 07:45:52;;;;;;;6.57;5.97;;;;;;;35.72;61.38;99879.31;4976668;28;20489;-90
2023/08/18 07:48:17;;;;;;;6.63;6.03;;;;;;;35.46;60.56;99862.34;4976548;28;20037;-90
2023/08/18 07:50:43;;;;;;;6.40;5.80;;;;;;;35.28;61.89;99884.06;4976445;28;20034;-90
2023/08/18 07:53:08;;;;;;;8.50;5.90;;;;;;;34.91;61.81;99875.09;4976115;28;20034;-90
2023/08/18 07:55:34;;;;;;;6.40;5.57;;;;;;;34.91;61.63;99880.50;4976137;28;20058;-90
2023/08/18 07:57:59;;;;;;;6.30;5.55;;;;;;;34.59;61.46;99869.78;4976342;28;20054;-90
2023/08/18 08:00:26;;;;;;;6.53;6.03;;;;;;;34.06;62.22;99880.19;4976091;28;20108;-90
2023/08/18 08:02:52;;;;;;;7.72;6.00;;;;;;;33.37;64.15;99873.66;4976299;28;20090;-90
2023/08/18 08:05:19;;;;;;;7.35;6.65;;;;;;;32.42;65.12;99882.19;4975980;28;20088;-91
2023/08/18 08:07:44;;;;;;;7.03;6.43;;;;;;;31.60;67.81;99893.19;5005968;28;20073;-92
2023/08/18 08:10:10;;;;;;;7.85;7.05;;;;;;;30.94;69.27;99901.75;5016308;28;20057;-92
2023/08/18 08:12:39;;;;;;;7.47;6.85;;;;;;;30.36;71.58;99888.47;5016659;28;20029;-92
2023/08/18 08:15:07;;;;;;;6.78;6.28;;;;;;;30.06;72.86;99902.03;5014768;28;20039;-93
2023/08/18 08:17:33;;;;;;;7.50;6.85;;;;;;;29.54;74.00;99889.66;5015038;28;20038;-92
2023/08/18 08:20:10;;;;;;;8.68;7.88;;;;;;;28.86;75.78;99885.41;5015978;28;20033;-92
2023/08/18 08:22:37;;;;;;;8.32;7.53;;;;;;;28.46;77.73;99894.72;5016402;28;20034;-93
2023/08/18 08:25:03;;;;;;;8.60;7.65;;;;;;;28.00;79.54;99884.00;5016034;28;20059;-93
2023/08/18 08:27:29;;;;;;;7.78;7.18;;;;;;;27.65;80.86;99890.72;5015708;28;20488;-93
2023/08/18 08:29:55;;;;;;;7.75;7.13;;;;;;;27.49;82.35;99884.44;5015724;28;20043;-92
2023/08/18 08:32:21;;;;;;;9.52;8.50;;;;;;;27.33;83.46;99889.88;5015561;28;20025;-92
2023/08/18 08:34:51;;;;;;;11.65;8.10;;;;;;;27.21;84.52;99901.94;5015756;28;20033;-93
2023/08/18 08:37:18;;;;;;;8.80;7.90;;;;;;;27.25;84.93;99897.91;5015589;28;20087;-93
2023/08/18 08:39:45;;;;;;;10.77;8.30;;;;;;;27.13;85.50;99897.44;5016030;28;20040;-92
2023/08/18 08:42:11;;;;;;;8.88;8.00;;;;;;;27.02;86.18;99906.66;5015850;28;20025;-93
2023/08/18 08:44:37;;;;;;;9.82;8.80;;;;;;;26.89;87.10;99897.50;5014591;28;20388;-92
2023/08/18 08:47:04;;;;;;;9.55;8.75;;;;;;;26.83;88.16;99896.34;5015613;28;20489;-92
2023/08/18 08:49:31;;;;;;;9.13;8.32;;;;;;;27.04;88.84;99901.13;5015932;28;20435;-92
2023/08/18 08:52:06;;;;;;;9.65;8.70;;;;;;;27.16;88.27;99890.94;5015842;28;20108;-93
2023/08/18 08:54:36;;;;;;;8.93;8.23;;;;;;;27.25;86.09;99895.25;5015158;28;20487;-92
2023/08/18 08:57:05;;;;;;;9.90;8.95;;;;;;;27.32;86.38;99882.84;5015522;28;20152;-92
2023/08/18 08:59:32;;;;;;;9.98;9.02;;;;;;;27.39;87.04;99886.50;5015423;28;20029;-93
2023/08/18 09:01:58;;;;;;;8.40;7.60;;;;;;;27.53;86.84;99887.59;5015422;28;20374;-92
2023/08/18 09:04:24;;;;;;;9.05;7.82;;;;;;;27.76;86.37;99879.63;5015083;28;20032;-92
2023/08/18 09:06:50;;;;;;;10.73;8.38;;;;;;;28.10;85.86;99882.72;5015758;28;20451;-92
2023/08/18 09:09:18;;;;;;;8.57;7.78;;;;;;;28.45;83.92;99885.00;5015046;28;20125;-92
2023/08/18 09:11:48;;;;;;;8.75;8.05;;;;;;;28.63;84.00;99879.31;5015286;28;20288;-92
2023/08/18 09:14:15;;;;;;;8.65;7.90;;;;;;;28.86;83.86;99866.66;5014846;28;20034;-92
2023/08/18 09:16:44;;;;;;;9.65;8.85;;;;;;;29.09;83.30;99874.66;5015063;28;20357;-93
2023/08/18 09:19:14;;;;;;;9.80;8.90;;;;;;;29.22;82.18;99879.34;5015122;28;20473;-92
2023/08/18 09:21:41;;;;;;;9.33;8.43;;;;;;;29.22;82.18;99871.31;5015282;28;20399;-92
2023/08/18 09:24:07;;;;;;;8.95;8.20;;;;;;;29.24;81.89;99861.22;5014914;28;20025;-92
2023/08/18 09:26:33;;;;;;;9.15;8.38;;;;;;;29.16;81.06;99872.91;5014678;28;20044;-92
2023/08/18 09:29:00;;;;;;;8.57;7.88;;;;;;;29.14;81.84;99871.41;5015147;28;20025;-92
2023/08/18 09:31:26;;;;;;;8.40;7.60;;;;;;;29.11;81.59;99863.72;5014833;28;20032;-92
2023/08/18 09:33:52;;;;;;;8.52;7.72;;;;;;;29.07;82.22;99863.25;5015041;28;20392;-92
2023/08/18 09:36:18;;;;;;;7.97;7.28;;;;;;;28.98;82.18;99861.69;5014627;28;20574;-92
2023/08/18 09:38:45;;;;;;;8.65;7.95;;;;;;;28.84;80.89;99853.44;5014831;28;20060;-92
2023/08/18 09:41:13;;;;;;;8.60;7.80;;;;;;;28.67;81.11;99857.31;5014686;28;20030;-92
2023/08/18 09:43:41;;;;;;;8.60;7.78;;;;;;;28.56;82.50;99847.03;5014697;28;20281;-92
2023/08/18 09:46:12;;;;;;;9.27;8.48;;;;;;;28.54;82.41;99841.88;5014901;28;20033;-92
2023/08/18 09:48:43;;;;;;;9.27;8.43;;;;;;;28.49;82.38;99851.47;5014505;28;20104;-92
2023/08/18 09:51:10;;;;;;;8.50;7.78;;;;;;;28.35;79.31;99845.88;5014696;28;20551;-91
2023/08/18 09:53:41;;;;;;;7.80;7.10;;;;;;;28.13;80.15;99836.03;5014143;28;20036;-91
2023/08/18 09:56:13;;;;;;;8.88;8.00;;;;;;;28.00;83.01;99831.28;5014073;28;20042;-91
2023/08/18 09:59:01;;;;;;;8.77;7.88;;;;;;;27.88;80.48;99827.34;5014396;28;20501;-92
2023/08/18 10:01:30;;;;;;;8.48;7.65;;;;;;;27.83;81.68;99817.19;5013943;28;20396;-92
2023/08/18 10:03:59;;;;;;;8.05;7.35;;;;;;;27.92;83.84;99828.66;5014484;28;20033;-92
2023/08/18 10:06:26;;;;;;;9.98;7.60;;;;;;;27.91;82.71;99828.84;5014127;28;20040;-93
2023/08/18 10:08:53;;;;;;;9.50;7.53;;;;;;;27.94;83.74;99823.13;5014539;28;20027;-92
2023/08/18 10:11:19;;;;;;;8.38;7.57;;;;;;;27.95;83.29;99827.47;5014298;28;20112;-91
2023/08/18 10:13:47;;;;;;;9.35;7.78;;;;;;;27.95;82.61;99814.94;5014425;28;20034;-91
2023/08/18 10:16:14;;;;;;;8.85;8.00;;;;;;;27.98;81.71;99819.06;5014349;28;20436;-92
2023/08/18 10:18:40;;;;;;;8.90;8.20;;;;;;;27.99;83.24;99815.41;5013942;28;20289;-92
2023/08/18 10:21:06;;;;;;;7.68;6.97;;;;;;;27.94;79.39;99810.59;5014140;28;20477;-92
2023/08/18 10:23:33;;;;;;;8.95;8.05;;;;;;;27.89;81.69;99810.28;4970558;28;20414;-92
2023/08/18 10:26:03;;;;;;;8.68;7.95;;;;;;;27.86;80.86;99810.66;4954642;28;20089;-93
2023/08/18 10:28:32;;;;;;;8.82;8.13;;;;;;;27.76;80.86;99794.81;4954417;28;20034;-92
2023/08/18 10:31:05;;;;;;;8.65;7.85;;;;;;;27.78;79.76;99810.72;4954609;28;20062;-92
2023/08/18 10:33:39;;;;;;;8.70;7.90;;;;;;;27.70;79.58;99819.59;4954289;28;20506;-92
2023/08/18 10:36:07;;;;;;;8.35;7.60;;;;;;;27.74;81.92;99812.91;4970709;28;20402;-92
2023/08/18 10:38:35;;;;;;;8.30;7.50;;;;;;;27.80;80.27;99816.72;4954407;28;20397;-92
2023/08/18 10:41:02;;;;;;;9.57;8.63;;;;;;;27.80;82.02;99817.53;4954443;28;20043;-92
2023/08/18 10:43:29;;;;;;;8.15;7.45;;;;;;;27.89;82.94;99812.94;4970369;28;20030;-92
2023/08/18 10:46:01;;;;;;;8.40;7.63;;;;;;;28.02;82.99;99809.66;4954504;28;20042;-91
2023/08/18 10:48:33;;;;;;;9.25;8.45;;;;;;;28.03;80.71;99814.88;4954136;28;20046;-92
2023/08/18 10:51:00;;;;;;;8.10;7.50;;;;;;;28.06;81.44;99819.88;4954653;28;20403;-92
2023/08/18 10:53:26;;;;;;;8.65;7.95;;;;;;;28.17;81.94;99815.06;4954323;28;20054;-91
2023/08/18 10:55:55;;;;;;;8.88;8.02;;;;;;;28.26;82.44;99812.13;4954380;28;20057;-92
2023/08/18 10:58:22;;;;;;;8.88;7.97;;;;;;;28.37;83.60;99808.22;4954063;28;20130;-92
2023/08/18 11:00:50;;;;;;;9.75;8.60;;;;;;;28.44;81.68;99808.31;4979809;28;20033;-92
2023/08/18 11:03:16;;;;;;;10.82;9.38;;;;;;;28.44;80.59;99813.66;5013845;28;20501;-92
2023/08/18 11:05:42;;;;;;;9.30;8.43;;;;;;;28.42;80.50;99795.09;5013730;28;20069;-93
2023/08/18 11:08:11;;;;;;;9.07;8.18;;;;;;;28.45;81.13;99805.47;5017120;28;20083;-92
2023/08/18 11:10:42;;;;;;;8.55;7.68;;;;;;;28.31;79.04;99798.19;5017325;28;20083;-92
2023/08/18 11:13:25;;;;;;;8.85;7.95;;;;;;;28.17;80.07;99813.22;5017558;28;20042;-91
2023/08/18 11:15:52;;;;;;;10.50;9.57;;;;;;;28.00;79.78;99807.19;5017384;28;20026;-92
2023/08/18 11:18:20;;;;;;;11.25;10.05;;;;;;;27.72;80.69;99779.28;5017407;28;20029;-91
2023/08/18 11:20:47;;;;;;;12.25;11.15;;;;;;;27.81;82.28;99803.16;5017229;28;20087;-92
2023/08/18 11:23:13;;;;;;;10.32;9.35;;;;;;;27.89;81.35;99814.78;5017400;28;20083;-92